Time;durP1;ratioP1;P1;durP2;ratioP2;P2;SDS_P1;SDS_P2;PMS_P1;PMS_P2;Temp;Humidity;BMP_temperature;BMP_pressure;BME280_temperature;BME280_humidity;BME280_pressure;Samples;Min_cycle;Max_cycle;Signal;HPM_P1;HPM_P2
2023/12/06 18:03:21;;;;;;;210.70;87.38;;;-0.20;99.90;;;;;;5071275;27;20464;-50
2023/12/06 18:05:47;;;;;;;216.43;91.07;;;-0.20;99.90;;;;;;5074869;28;20028;-55
2023/12/06 18:08:13;;;;;;;198.80;91.72;;;-0.20;99.90;;;;;;5074880;28;20042;-49
2023/12/06 18:10:39;;;;;;;209.27;95.43;;;-0.30;99.90;;;;;;5075002;28;20036;-49
2023/12/06 18:13:05;;;;;;;212.43;98.32;;;-0.20;99.90;;;;;;5072771;28;20050;-49
2023/12/06 18:15:31;;;;;;;214.82;98.75;;;-0.20;99.90;;;;;;5057027;28;20048;-50
2023/12/06 18:17:56;;;;;;;219.02;98.70;;;-0.20;99.90;;;;;;5055098;28;20051;-47
2023/12/06 18:20:22;;;;;;;209.35;98.15;;;-0.20;99.90;;;;;;5075394;28;20063;-51
2023/12/06 18:22:48;;;;;;;194.50;91.40;;;-0.30;99.90;;;;;;5071541;28;20502;-46
2023/12/06 18:25:14;;;;;;;202.02;93.43;;;-0.30;99.90;;;;;;5074373;28;20604;-46
2023/12/06 18:27:40;;;;;;;196.70;92.68;;;-0.20;99.90;;;;;;5075296;28;20032;-51
2023/12/06 18:30:07;;;;;;;205.63;93.53;;;-0.20;99.90;;;;;;5073529;28;20043;-53
2023/12/06 18:32:33;;;;;;;201.80;96.72;;;-0.20;99.90;;;;;;5071067;28;20167;-48
2023/12/06 18:35:00;;;;;;;192.38;91.78;;;-0.20;99.90;;;;;;5073937;28;20020;-52
2023/12/06 18:37:26;;;;;;;196.98;91.65;;;-0.30;99.90;;;;;;5074400;28;20035;-53
2023/12/06 18:39:52;;;;;;;186.30;87.80;;;-0.40;99.90;;;;;;5074257;28;20087;-48
2023/12/06 18:42:17;;;;;;;171.18;85.90;;;-0.40;99.90;;;;;;5072687;28;20051;-46
2023/12/06 18:44:43;;;;;;;181.68;83.10;;;-0.40;99.90;;;;;;5073745;28;20036;-54
2023/12/06 18:47:10;;;;;;;175.88;82.93;;;-0.30;99.90;;;;;;5073169;28;20031;-52
2023/12/06 18:49:35;;;;;;;;;;;-0.30;99.90;;;;;;5075008;28;20087;-50
2023/12/06 18:52:01;;;;;;;178.57;83.60;;;-0.30;99.90;;;;;;5070255;28;19918;-46
2023/12/06 18:54:27;;;;;;;178.98;81.20;;;-0.30;99.90;;;;;;5074525;28;20403;-51
2023/12/06 18:56:53;;;;;;;166.43;79.25;;;-0.40;99.90;;;;;;5073822;28;20035;-51
2023/12/06 18:59:18;;;;;;;168.65;81.15;;;-0.50;99.90;;;;;;5073755;28;20710;-50
2023/12/06 19:01:44;;;;;;;170.07;82.43;;;-0.40;99.90;;;;;;5070694;28;20112;-50
2023/12/06 19:04:10;;;;;;;168.10;81.20;;;-0.40;99.90;;;;;;5073037;28;21077;-48
2023/12/06 19:06:36;;;;;;;177.98;84.07;;;-0.40;99.90;;;;;;5074206;28;20067;-50
2023/12/06 19:09:01;;;;;;;183.02;85.20;;;-0.60;99.90;;;;;;5074676;28;20036;-52
2023/12/06 19:11:27;;;;;;;178.52;81.90;;;-0.50;99.90;;;;;;5073098;28;20395;-48
2023/12/06 19:13:53;;;;;;;186.90;87.28;;;-0.60;99.90;;;;;;5064445;28;20345;-50
2023/12/06 19:16:19;;;;;;;179.10;83.53;;;-0.60;99.90;;;;;;5060371;28;20028;-49
2023/12/06 19:18:45;;;;;;;178.60;83.30;;;-0.70;99.90;;;;;;5061470;28;20032;-49
2023/12/06 19:21:11;;;;;;;191.52;87.72;;;-0.80;99.90;;;;;;5060434;28;20047;-47
2023/12/06 19:23:37;;;;;;;184.85;88.35;;;-0.80;99.90;;;;;;5058992;28;20039;-51
2023/12/06 19:26:03;;;;;;;189.80;89.63;;;-0.80;99.90;;;;;;5059729;28;20471;-49
2023/12/06 19:28:29;;;;;;;193.80;89.00;;;-0.90;99.90;;;;;;5060247;28;20055;-55
2023/12/06 19:30:56;;;;;;;191.63;88.85;;;-0.90;99.90;;;;;;5060837;28;20091;-46
2023/12/06 19:33:23;;;;;;;199.32;91.80;;;-1.00;99.90;;;;;;5057726;28;20059;-55
2023/12/06 19:35:49;;;;;;;192.05;88.35;;;-1.00;99.90;;;;;;5060320;28;20547;-46
2023/12/06 19:38:15;;;;;;;193.10;95.25;;;-1.00;99.90;;;;;;5058798;28;20165;-47
2023/12/06 19:40:42;;;;;;;193.18;89.78;;;-1.00;99.90;;;;;;5057823;28;20032;-50
2023/12/06 19:43:18;;;;;;;192.00;91.53;;;-1.00;99.90;;;;;;5056845;28;20063;-52
2023/12/06 19:45:44;;;;;;;190.88;89.63;;;-1.00;99.90;;;;;;5058971;28;20040;-49
2023/12/06 19:48:11;;;;;;;182.77;85.50;;;-1.00;99.90;;;;;;5057884;28;20036;-54
2023/12/06 19:50:37;;;;;;;193.20;90.20;;;-1.00;99.90;;;;;;5058095;28;20062;-51
2023/12/06 19:53:04;;;;;;;199.10;89.80;;;-1.00;99.90;;;;;;5037543;28;20028;-49
2023/12/06 19:55:30;;;;;;;209.25;92.95;;;-1.20;99.90;;;;;;5055876;28;20471;-53
2023/12/06 19:57:55;;;;;;;184.55;87.63;;;-1.10;99.90;;;;;;5057587;28;20150;-46
2023/12/06 20:00:21;;;;;;;178.95;82.65;;;-1.10;99.90;;;;;;5059093;28;20501;-47
2023/12/06 20:02:47;;;;;;;174.63;85.80;;;-1.00;99.90;;;;;;5056062;28;20064;-54
2023/12/06 20:05:13;;;;;;;189.48;88.68;;;-1.00;99.90;;;;;;5060625;28;20029;-53
2023/12/06 20:07:45;;;;;;;183.10;88.13;;;-1.00;99.90;;;;;;5059759;28;20036;-56
2023/12/06 20:10:14;;;;;;;176.85;80.28;;;-1.10;99.90;;;;;;5058384;28;20036;-52
2023/12/06 20:12:41;;;;;;;175.60;82.40;;;-1.20;99.90;;;;;;5056263;28;20054;-47
2023/12/06 20:15:08;;;;;;;171.00;81.63;;;-1.20;99.90;;;;;;5059475;28;20580;-55
2023/12/06 20:17:34;;;;;;;175.98;78.10;;;-1.20;99.90;;;;;;5058096;28;20565;-54
2023/12/06 20:20:00;;;;;;;181.70;80.90;;;-1.30;99.90;;;;;;5057048;28;20032;-58
2023/12/06 20:22:26;;;;;;;181.55;82.20;;;-1.30;99.90;;;;;;5056285;28;20129;-52
2023/12/06 20:24:52;;;;;;;165.07;74.25;;;-1.30;99.90;;;;;;5058044;28;20875;-50
2023/12/06 20:27:18;;;;;;;169.50;77.72;;;-1.30;99.90;;;;;;5059309;28;20549;-52
2023/12/06 20:29:44;;;;;;;168.63;76.93;;;-1.30;99.90;;;;;;5059135;28;20047;-51
2023/12/06 20:32:10;;;;;;;169.52;75.75;;;-1.30;99.90;;;;;;5055235;28;20804;-53
2023/12/06 20:34:36;;;;;;;169.63;79.60;;;-1.40;99.90;;;;;;5058328;28;20032;-48
2023/12/06 20:37:02;;;;;;;170.02;79.85;;;-1.30;99.90;;;;;;5057774;28;20781;-54
2023/12/06 20:39:27;;;;;;;167.23;75.25;;;-1.30;99.90;;;;;;5058601;28;20119;-54
2023/12/06 20:41:56;;;;;;;167.65;75.25;;;-1.20;99.90;;;;;;5057694;28;20122;-53
2023/12/06 20:44:22;;;;;;;161.63;76.05;;;-1.30;99.90;;;;;;5057373;28;20067;-54
2023/12/06 20:46:48;;;;;;;160.00;74.65;;;-1.30;99.90;;;;;;5060530;28;20028;-51
2023/12/06 20:49:15;;;;;;;157.87;72.47;;;-1.30;99.90;;;;;;5059332;28;20085;-54
2023/12/06 20:51:43;;;;;;;;;;;-1.30;99.90;;;;;;5057044;28;20573;-53
2023/12/06 20:54:10;;;;;;;157.75;74.55;;;-1.30;99.90;;;;;;5058740;28;19965;-49
2023/12/06 20:56:35;;;;;;;;;;;-1.30;99.90;;;;;;5041202;28;20032;-48
2023/12/06 20:59:01;;;;;;;151.55;68.85;;;-1.20;99.90;;;;;;5058240;28;19918;-52
2023/12/06 21:01:27;;;;;;;155.73;72.00;;;-1.10;99.90;;;;;;5057335;28;20563;-52
2023/12/06 21:03:53;;;;;;;162.90;71.50;;;-1.20;99.90;;;;;;5061537;28;20077;-50
2023/12/06 21:06:19;;;;;;;154.88;69.20;;;-1.30;99.90;;;;;;5050786;28;20039;-49
2023/12/06 21:08:45;;;;;;;159.17;71.90;;;-1.40;99.90;;;;;;5065359;28;20144;-54
2023/12/06 21:11:11;;;;;;;151.80;71.70;;;-1.40;99.90;;;;;;5064738;28;20486;-54
2023/12/06 21:13:37;;;;;;;156.65;72.53;;;-1.40;99.90;;;;;;5069363;28;20038;-55
2023/12/06 21:16:06;;;;;;;161.18;73.70;;;-1.40;99.90;;;;;;5069470;28;20117;-48
2023/12/06 21:18:33;;;;;;;147.85;68.75;;;-1.30;99.90;;;;;;5055649;28;20028;-54
2023/12/06 21:20:58;;;;;;;160.77;72.50;;;-1.40;99.90;;;;;;5049227;28;20558;-48
2023/12/06 21:23:24;;;;;;;157.25;71.85;;;-1.40;99.90;;;;;;5060463;28;20043;-45
2023/12/06 21:25:50;;;;;;;146.95;70.25;;;-1.40;99.90;;;;;;5061764;28;20032;-49
2023/12/06 21:28:15;;;;;;;150.05;68.57;;;-1.30;99.90;;;;;;5029821;28;20534;-52
2023/12/06 21:30:41;;;;;;;152.10;68.22;;;-1.40;99.90;;;;;;5071183;28;20028;-51
2023/12/06 21:33:07;;;;;;;149.90;68.30;;;-1.30;99.90;;;;;;5070640;28;20036;-57
2023/12/06 21:35:33;;;;;;;142.63;68.50;;;-1.10;99.90;;;;;;5065988;28;20038;-51
2023/12/06 21:37:59;;;;;;;148.40;70.35;;;-1.10;99.90;;;;;;5059812;28;20050;-56
2023/12/06 21:40:24;;;;;;;163.45;71.85;;;-1.20;99.90;;;;;;5057699;28;20118;-48
2023/12/06 21:42:50;;;;;;;149.57;67.20;;;-1.20;99.90;;;;;;5054517;28;20046;-50
2023/12/06 21:45:16;;;;;;;154.23;67.95;;;-1.20;99.90;;;;;;5056352;28;20028;-51
2023/12/06 21:47:42;;;;;;;150.25;67.30;;;-1.20;99.90;;;;;;5056785;28;20032;-51
2023/12/06 21:50:08;;;;;;;158.00;70.60;;;-1.20;99.90;;;;;;5057079;28;20934;-55
2023/12/06 21:52:34;;;;;;;148.07;67.22;;;-1.10;99.90;;;;;;5053625;28;20032;-48
2023/12/06 21:54:59;;;;;;;159.65;69.72;;;-1.10;99.90;;;;;;5056263;28;20028;-51
2023/12/06 21:57:25;;;;;;;136.65;66.05;;;-1.00;99.90;;;;;;5056756;28;20032;-51
2023/12/06 21:59:51;;;;;;;144.55;64.63;;;-1.10;99.90;;;;;;5056239;28;20509;-55
2023/12/06 22:02:16;;;;;;;151.70;66.25;;;-1.10;99.90;;;;;;5054468;28;20056;-57
2023/12/06 22:04:42;;;;;;;146.05;65.22;;;-1.10;99.90;;;;;;5057219;28;20712;-49
2023/12/06 22:07:09;;;;;;;136.75;61.53;;;-1.10;99.90;;;;;;5056656;28;20402;-53
2023/12/06 22:09:34;;;;;;;147.65;64.82;;;-1.10;99.90;;;;;;5056861;28;20610;-48
2023/12/06 22:12:00;;;;;;;138.48;63.03;;;-1.10;99.90;;;;;;5055035;28;20036;-55
2023/12/06 22:14:26;;;;;;;142.60;64.45;;;-1.10;99.90;;;;;;5056159;28;20035;-49
2023/12/06 22:16:51;;;;;;;135.38;64.50;;;-0.90;99.90;;;;;;5057356;28;20031;-52
2023/12/06 22:19:17;;;;;;;146.82;65.72;;;-1.00;99.90;;;;;;5063711;28;20092;-52
2023/12/06 22:21:43;;;;;;;146.40;63.22;;;-1.00;99.90;;;;;;5063592;28;20070;-54
2023/12/06 22:24:08;;;;;;;140.55;64.20;;;-1.00;99.90;;;;;;5060567;28;20528;-49
2023/12/06 22:26:34;;;;;;;143.05;65.65;;;-1.10;99.90;;;;;;5058424;28;20074;-53
2023/12/06 22:29:00;;;;;;;150.80;65.40;;;-1.00;99.90;;;;;;5057171;28;20531;-55
2023/12/06 22:31:26;;;;;;;142.82;66.13;;;-1.10;99.90;;;;;;5038713;28;20096;-57
2023/12/06 22:33:52;;;;;;;141.68;64.32;;;-1.10;99.90;;;;;;5055007;28;20664;-51
2023/12/06 22:36:18;;;;;;;141.88;64.95;;;-1.10;99.90;;;;;;5037423;28;20526;-52
2023/12/06 22:38:45;;;;;;;146.38;66.35;;;-1.00;99.90;;;;;;5055927;28;20115;-51
2023/12/06 22:41:10;;;;;;;149.15;65.97;;;-1.10;99.90;;;;;;5055583;28;20391;-54
2023/12/06 22:43:36;;;;;;;143.20;64.45;;;-1.00;99.90;;;;;;5051792;28;20037;-50
2023/12/06 22:46:03;;;;;;;143.43;63.83;;;-0.90;99.90;;;;;;5055828;28;20032;-52
2023/12/06 22:48:28;;;;;;;148.43;66.95;;;-0.90;99.90;;;;;;5057480;28;20093;-49
2023/12/06 22:50:54;;;;;;;149.57;67.15;;;-0.90;99.90;;;;;;5059570;28;20029;-49
2023/12/06 22:53:20;;;;;;;149.60;67.45;;;-0.90;99.90;;;;;;5057598;28;20508;-47
2023/12/06 22:55:45;;;;;;;152.77;66.40;;;-0.90;99.90;;;;;;5060280;28;20024;-57
2023/12/06 22:58:11;;;;;;;152.05;69.22;;;-0.90;99.90;;;;;;5059465;28;21563;-51
2023/12/06 23:00:37;;;;;;;147.13;69.22;;;-0.90;99.90;;;;;;5060974;28;20035;-49
2023/12/06 23:03:02;;;;;;;158.27;69.05;;;-0.80;99.90;;;;;;5057168;28;20483;-49
2023/12/06 23:05:28;;;;;;;161.48;69.53;;;-0.90;99.90;;;;;;5059488;28;21165;-49
2023/12/06 23:07:54;;;;;;;151.55;67.28;;;-0.90;99.90;;;;;;5059792;28;20604;-51
2023/12/06 23:10:19;;;;;;;158.25;69.32;;;-1.00;99.90;;;;;;5067253;28;20032;-53
2023/12/06 23:12:45;;;;;;;157.30;69.40;;;-1.00;99.90;;;;;;5070534;28;20348;-51
2023/12/06 23:15:10;;;;;;;156.85;70.22;;;-0.90;99.90;;;;;;5071401;28;20028;-53
2023/12/06 23:17:36;;;;;;;156.13;71.93;;;-0.90;99.90;;;;;;5061187;28;20040;-50
2023/12/06 23:20:02;;;;;;;150.05;68.38;;;-1.00;99.90;;;;;;5068192;28;20024;-50
2023/12/06 23:22:28;;;;;;;155.40;68.22;;;-0.90;99.90;;;;;;5071297;28;20449;-57
2023/12/06 23:24:53;;;;;;;155.93;69.80;;;-1.00;99.90;;;;;;5082861;28;20023;-52
2023/12/06 23:27:19;;;;;;;153.82;68.00;;;-1.00;99.90;;;;;;5066912;28;21654;-62
2023/12/06 23:29:45;;;;;;;156.38;69.13;;;-1.00;99.90;;;;;;5065855;28;20488;-52
2023/12/06 23:32:10;;;;;;;152.38;68.60;;;-1.00;99.90;;;;;;5068298;28;20187;-60
2023/12/06 23:34:36;;;;;;;157.15;67.20;;;-0.90;99.90;;;;;;5075366;28;20119;-54
2023/12/06 23:37:01;;;;;;;155.95;69.90;;;-1.00;99.90;;;;;;5070270;28;20039;-53
2023/12/06 23:39:27;;;;;;;161.52;69.65;;;-1.10;99.90;;;;;;5067992;28;20084;-52
2023/12/06 23:41:53;;;;;;;151.15;65.35;;;-1.10;99.90;;;;;;5063925;28;20106;-56
2023/12/06 23:44:18;;;;;;;159.90;68.40;;;-1.10;99.90;;;;;;5075417;28;20020;-51
2023/12/06 23:46:44;;;;;;;144.25;65.25;;;-1.00;99.90;;;;;;5082355;28;20032;-52
2023/12/06 23:49:10;;;;;;;150.80;67.47;;;-1.00;99.90;;;;;;5061950;28;20036;-51
2023/12/06 23:51:36;;;;;;;158.73;69.32;;;-1.00;99.90;;;;;;5061172;28;20035;-56
2023/12/06 23:54:02;;;;;;;154.95;69.40;;;-1.00;99.90;;;;;;5058594;28;20036;-49
2023/12/06 23:56:27;;;;;;;150.70;67.27;;;-1.00;99.90;;;;;;5061300;28;20016;-55
2023/12/06 23:58:53;;;;;;;152.57;69.07;;;-1.00;99.90;;;;;;5062525;28;20032;-61
